Time;durP1;ratioP1;P1;durP2;ratioP2;P2;SDS_P1;SDS_P2;PMS_P1;PMS_P2;Temp;Humidity;BMP_temperature;BMP_pressure;BME280_temperature;BME280_humidity;BME280_pressure;Samples;Min_cycle;Max_cycle;Signal;HPM_P1;HPM_P2
2021/06/07 00:02:19;;;;;;;22.40;8.43;;;;;;;13.37;100.00;100551.63;1576687;89;21474;-79
2021/06/07 00:04:50;;;;;;;25.30;8.35;;;;;;;13.35;100.00;100559.22;1575085;89;21093;-80
2021/06/07 00:07:14;;;;;;;23.22;9.00;;;;;;;13.35;100.00;100560.05;1571199;89;20998;-80
2021/06/07 00:09:42;;;;;;;22.13;8.45;;;;;;;13.33;100.00;100554.64;1554562;89;21104;-80
2021/06/07 00:12:14;;;;;;;18.12;8.73;;;;;;;13.29;100.00;100553.02;1573254;91;21224;-80
2021/06/07 00:14:40;;;;;;;20.08;7.87;;;;;;;13.31;100.00;100547.34;1573449;90;21651;-80
2021/06/07 00:17:07;;;;;;;27.62;10.00;;;;;;;13.30;100.00;100549.24;1573454;91;21136;-80
2021/06/07 00:19:42;;;;;;;19.98;8.25;;;;;;;13.31;100.00;100553.55;1573360;89;21104;-77
2021/06/07 00:22:09;;;;;;;21.40;8.35;;;;;;;13.37;100.00;100551.63;1573252;89;21151;-79
2021/06/07 00:24:38;;;;;;;19.87;8.45;;;;;;;13.37;100.00;100549.73;1573340;89;21151;-83
2021/06/07 00:27:05;;;;;;;21.52;8.73;;;;;;;13.39;100.00;100548.91;1573467;91;21588;-80
2021/06/07 00:29:31;;;;;;;19.82;8.23;;;;;;;13.39;100.00;100554.33;1573288;89;21223;-78
2021/06/07 00:31:57;;;;;;;17.12;7.87;;;;;;;13.40;100.00;100545.11;1573403;89;21183;-79
2021/06/07 00:34:23;;;;;;;19.52;8.00;;;;;;;13.43;100.00;100549.16;1573547;89;21096;-79
2021/06/07 00:36:52;;;;;;;21.85;7.58;;;;;;;13.48;100.00;100551.04;1573280;90;20950;-83
2021/06/07 00:39:18;;;;;;;17.62;7.40;;;;;;;13.51;100.00;100551.28;1573286;89;21180;-80
2021/06/07 00:41:48;;;;;;;14.00;7.03;;;;;;;13.58;100.00;100557.18;1573233;89;21124;-82
2021/06/07 00:44:21;;;;;;;19.55;7.35;;;;;;;13.63;100.00;100551.73;1570591;90;21084;-80
2021/06/07 00:46:51;;;;;;;14.00;6.87;;;;;;;13.70;100.00;100554.12;1563441;91;21922;-80
2021/06/07 00:49:18;;;;;;;18.07;7.28;;;;;;;13.73;100.00;100548.69;1558328;90;21266;-80
2021/06/07 00:51:46;;;;;;;12.60;6.55;;;;;;;13.76;100.00;100550.84;1554908;91;21154;-79
2021/06/07 00:54:14;;;;;;;12.85;6.95;;;;;;;13.83;100.00;100551.34;1534493;92;21058;-79
2021/06/07 00:56:45;;;;;;;15.75;6.45;;;;;;;13.84;100.00;100552.95;1561031;90;21022;-79
2021/06/07 00:59:12;;;;;;;15.48;6.90;;;;;;;13.86;100.00;100554.84;1597175;89;21153;-79
2021/06/07 01:01:38;;;;;;;12.98;6.08;;;;;;;13.93;100.00;100558.58;1599434;88;21079;-79
2021/06/07 01:04:05;;;;;;;12.78;6.70;;;;;;;13.99;100.00;100565.02;1617440;88;21125;-80
2021/06/07 01:06:32;;;;;;;17.10;6.42;;;;;;;14.01;100.00;100568.27;1617790;88;21086;-79
2021/06/07 01:08:58;;;;;;;12.35;6.00;;;;;;;14.05;100.00;100569.30;1628926;87;21558;-79
2021/06/07 01:11:26;;;;;;;14.20;6.28;;;;;;;14.07;100.00;100561.70;1645810;87;21267;-85
2021/06/07 01:13:53;;;;;;;15.03;6.28;;;;;;;14.11;100.00;100559.78;1645666;87;21008;-79
2021/06/07 01:16:21;;;;;;;12.50;6.20;;;;;;;14.19;100.00;100559.98;1645849;87;21017;-79
2021/06/07 01:18:50;;;;;;;13.25;5.95;;;;;;;14.22;100.00;100551.83;1647968;87;20953;-79
2021/06/07 01:21:23;;;;;;;11.88;6.37;;;;;;;14.28;100.00;100547.42;1647965;87;21063;-79
2021/06/07 01:23:50;;;;;;;;;;;;;;;14.30;100.00;100545.25;1626834;88;21593;-79
2021/06/07 01:26:19;;;;;;;13.78;6.10;;;;;;;14.33;100.00;100544.42;1624573;88;20188;-79
2021/06/07 01:28:48;;;;;;;11.50;5.47;;;;;;;14.38;100.00;100545.16;1624372;88;21099;-79
2021/06/07 01:31:16;;;;;;;18.07;6.50;;;;;;;14.44;100.00;100545.91;1624593;88;21045;-78
2021/06/07 01:33:46;;;;;;;14.38;6.42;;;;;;;14.45;100.00;100548.91;1624697;88;21067;-79
2021/06/07 01:36:13;;;;;;;12.30;6.17;;;;;;;14.45;100.00;100547.00;1624476;88;21103;-79
2021/06/07 01:38:40;;;;;;;12.28;5.95;;;;;;;14.44;100.00;100549.45;1624833;88;21164;-76
2021/06/07 01:41:11;;;;;;;10.75;5.78;;;;;;;14.44;100.00;100541.33;1624654;88;21476;-79
2021/06/07 01:43:38;;;;;;;12.55;5.80;;;;;;;14.49;100.00;100539.89;1643313;85;21492;-79
2021/06/07 01:46:05;;;;;;;13.22;6.67;;;;;;;14.56;100.00;100538.77;1664792;86;21051;-80
2021/06/07 01:48:31;;;;;;;11.35;6.17;;;;;;;14.59;100.00;100539.03;1664939;86;22023;-79
2021/06/07 01:51:01;;;;;;;14.18;7.00;;;;;;;14.66;100.00;100540.84;1664604;86;21024;-79
2021/06/07 01:53:30;;;;;;;14.80;7.03;;;;;;;14.71;100.00;100537.27;1664953;86;21008;-79
2021/06/07 01:56:01;;;;;;;16.97;6.67;;;;;;;14.75;100.00;100541.81;1664784;86;21036;-79
2021/06/07 01:58:28;;;;;;;18.15;6.35;;;;;;;14.80;100.00;100541.52;1664912;86;21094;-80
2021/06/07 02:01:14;;;;;;;15.20;6.95;;;;;;;14.84;100.00;100543.89;1666270;85;21079;-79
2021/06/07 02:03:41;;;;;;;12.70;6.67;;;;;;;14.86;100.00;100535.73;1630111;88;21035;-79
2021/06/07 02:06:10;;;;;;;16.37;7.20;;;;;;;14.92;100.00;100540.55;1630232;88;21147;-79
2021/06/07 02:08:39;;;;;;;16.62;6.92;;;;;;;14.97;100.00;100536.39;1630216;88;21546;-79
2021/06/07 02:11:12;;;;;;;15.48;6.35;;;;;;;14.99;100.00;100536.36;1611606;88;21531;-79
2021/06/07 02:13:39;;;;;;;;;;;;;;;15.04;100.00;100535.51;1631108;88;21235;-79
2021/06/07 02:16:09;;;;;;;17.37;6.60;;;;;;;15.06;100.00;100535.20;1623623;88;20196;-79
2021/06/07 02:18:38;;;;;;;14.38;6.50;;;;;;;15.09;100.00;100535.97;1623721;88;21012;-79
2021/06/07 02:21:10;;;;;;;11.65;6.28;;;;;;;15.11;100.00;100534.59;1624026;88;21082;-79
2021/06/07 02:23:40;;;;;;;13.58;6.50;;;;;;;15.16;100.00;100533.17;1623718;88;21082;-79
2021/06/07 02:26:07;;;;;;;18.77;6.75;;;;;;;15.19;100.00;100533.14;1625279;86;21554;-79
2021/06/07 02:28:37;;;;;;;10.32;6.12;;;;;;;15.22;100.00;100533.36;1648893;87;21218;-78
2021/06/07 02:31:05;;;;;;;13.43;5.85;;;;;;;15.27;100.00;100537.92;1648888;87;21051;-79
2021/06/07 02:33:33;;;;;;;15.43;6.20;;;;;;;15.32;100.00;100538.39;1649226;87;21208;-79
2021/06/07 02:35:58;;;;;;;14.38;5.87;;;;;;;15.37;100.00;100545.91;1648477;87;21063;-79
2021/06/07 02:38:24;;;;;;;10.50;5.10;;;;;;;15.45;100.00;100541.75;1649391;87;21407;-83
2021/06/07 02:40:51;;;;;;;11.60;5.90;;;;;;;15.53;100.00;100545.16;1648331;87;21526;-79
2021/06/07 02:43:18;;;;;;;14.58;5.72;;;;;;;15.60;100.00;100551.58;1648833;87;21083;-79
2021/06/07 02:45:45;;;;;;;9.95;5.65;;;;;;;15.67;100.00;100552.00;1648896;87;21072;-79
2021/06/07 02:48:11;;;;;;;12.85;5.67;;;;;;;15.72;100.00;100549.25;1648916;87;21054;-79
2021/06/07 02:50:42;;;;;;;13.48;5.47;;;;;;;15.79;100.00;100555.66;1648735;87;21549;-79
2021/06/07 02:53:11;;;;;;;13.75;5.55;;;;;;;15.82;100.00;100554.52;1580044;90;21053;-79
2021/06/07 02:55:48;;;;;;;13.68;5.53;;;;;;;15.94;100.00;100548.62;1579663;90;21076;-78
2021/06/07 02:58:15;;;;;;;13.88;5.78;;;;;;;16.02;100.00;100554.73;1580214;90;21083;-79
2021/06/07 03:00:49;;;;;;;13.25;6.10;;;;;;;16.17;100.00;100554.23;1604702;87;21053;-79
2021/06/07 03:03:16;;;;;;;14.87;6.03;;;;;;;16.31;100.00;100549.64;1622635;88;21673;-79
2021/06/07 03:05:46;;;;;;;14.70;6.05;;;;;;;16.41;100.00;100549.44;1622566;88;21603;-85
2021/06/07 03:08:22;;;;;;;14.78;5.78;;;;;;;16.47;100.00;100544.72;1622825;88;21065;-79
2021/06/07 03:10:52;;;;;;;11.30;5.25;;;;;;;16.55;100.00;100547.55;1622216;87;21557;-78
2021/06/07 03:13:21;;;;;;;10.20;5.70;;;;;;;16.66;100.00;100548.17;1622470;88;21007;-79
2021/06/07 03:15:50;;;;;;;10.38;5.70;;;;;;;16.82;100.00;100545.98;1622407;88;21325;-79
2021/06/07 03:18:16;;;;;;;16.80;5.60;;;;;;;16.98;100.00;100541.05;1622196;88;21016;-80
2021/06/07 03:20:44;;;;;;;13.95;6.72;;;;;;;17.14;100.00;100538.23;1616037;88;21522;-80
2021/06/07 03:23:15;;;;;;;11.80;6.05;;;;;;;17.29;100.00;100542.55;1622040;88;21106;-79
2021/06/07 03:25:43;;;;;;;12.95;5.97;;;;;;;17.40;100.00;100539.05;1622439;88;21083;-80
2021/06/07 03:28:10;;;;;;;10.50;5.75;;;;;;;17.60;100.00;100541.31;1622453;88;21092;-79
2021/06/07 03:30:43;;;;;;;12.60;4.95;;;;;;;17.86;100.00;100540.75;1600981;88;21042;-78
2021/06/07 03:33:12;;;;;;;14.15;5.58;;;;;;;18.39;100.00;100541.30;1622556;88;21601;-79
2021/06/07 03:35:41;;;;;;;12.50;5.47;;;;;;;18.86;100.00;100529.40;1622038;88;21054;-79
2021/06/07 03:38:09;;;;;;;10.60;5.45;;;;;;;19.30;100.00;100534.39;1622815;88;21061;-79
2021/06/07 03:40:40;;;;;;;12.30;5.12;;;;;;;20.10;100.00;100531.31;1622381;88;21045;-79
2021/06/07 03:43:07;;;;;;;9.95;5.25;;;;;;;20.79;100.00;100531.64;1611625;88;21096;-79
2021/06/07 03:45:34;;;;;;;14.03;5.17;;;;;;;21.36;100.00;100525.69;1604648;87;21532;-80
2021/06/07 03:48:02;;;;;;;10.90;5.15;;;;;;;21.87;100.00;100526.36;1604684;87;21613;-78
2021/06/07 03:50:33;;;;;;;12.60;4.40;;;;;;;22.29;100.00;100522.73;1549056;92;21034;-77
2021/06/07 03:53:02;;;;;;;12.78;4.97;;;;;;;23.34;100.00;100526.48;1500418;95;21167;-80
2021/06/07 03:55:30;;;;;;;10.75;4.92;;;;;;;24.17;100.00;100524.67;1501585;91;21162;-80
2021/06/07 03:57:57;;;;;;;15.13;5.12;;;;;;;24.74;100.00;100528.08;1553796;91;21064;-79
2021/06/07 04:00:27;;;;;;;12.53;4.72;;;;;;;25.67;100.00;100525.42;1558070;91;21435;-79
2021/06/07 04:02:54;;;;;;;10.40;5.08;;;;;;;26.69;100.00;100529.67;1544394;91;21598;-80
2021/06/07 04:05:21;;;;;;;9.53;4.72;;;;;;;27.48;100.00;100522.51;1537394;92;21188;-80
2021/06/07 04:07:50;;;;;;;15.00;5.08;;;;;;;28.40;100.00;100526.06;1541048;91;21049;-79
2021/06/07 04:10:20;;;;;;;11.93;5.00;;;;;;;29.26;89.15;100533.63;1541489;92;21075;-79
2021/06/07 04:12:49;;;;;;;10.28;5.08;;;;;;;29.87;85.57;100526.36;1534460;92;21131;-79
2021/06/07 04:15:19;;;;;;;12.50;5.37;;;;;;;30.44;80.31;100521.48;1490724;96;21064;-79
2021/06/07 04:17:47;;;;;;;13.95;6.10;;;;;;;30.85;70.09;100521.87;1492200;96;21117;-79
2021/06/07 04:20:21;;;;;;;17.30;6.83;;;;;;;30.47;55.31;100524.86;1491915;96;21040;-78
2021/06/07 04:22:47;;;;;;;15.45;6.28;;;;;;;29.64;61.86;100533.03;1490319;96;21020;-80
2021/06/07 04:25:18;;;;;;;16.12;7.15;;;;;;;28.92;70.23;100533.82;1492296;96;21087;-80
2021/06/07 04:27:45;;;;;;;16.67;6.62;;;;;;;28.24;71.86;100530.48;1473060;96;21140;-78
2021/06/07 04:30:15;;;;;;;21.70;6.42;;;;;;;28.06;76.38;100539.98;1443635;96;21170;-79
2021/06/07 04:32:42;;;;;;;13.50;6.35;;;;;;;28.12;75.72;100537.10;1492168;96;21120;-79
2021/06/07 04:35:14;;;;;;;17.92;7.50;;;;;;;27.99;76.51;100537.15;1507432;94;21025;-80
2021/06/07 04:37:53;;;;;;;;;;;;;;;;;;;;;
2021/06/07 04:40:11;;;;;;;19.55;7.62;;;;;;;27.42;69.44;100536.47;1471283;97;21240;-80
2021/06/07 04:42:42;;;;;;;16.90;7.65;;;;;;;26.61;69.37;100535.66;1471640;97;21093;-78
2021/06/07 04:45:14;;;;;;;20.52;8.05;;;;;;;26.16;77.24;100541.38;1471556;97;21027;-79
2021/06/07 04:47:40;;;;;;;19.42;9.35;;;;;;;26.00;81.29;100540.67;1492387;95;21127;-79
2021/06/07 04:50:12;;;;;;;22.93;7.92;;;;;;;26.07;79.70;100544.17;1502246;95;21695;-80
2021/06/07 04:52:59;;;;;;;16.00;6.93;;;;;;;26.38;78.60;100545.89;1505570;95;21097;-80
2021/06/07 04:55:41;;;;;;;18.02;7.37;;;;;;;26.78;79.58;100545.41;1464597;97;21886;-80
2021/06/07 04:58:25;;;;;;;15.05;6.65;;;;;;;26.98;77.13;100543.34;1463968;98;21096;-80
2021/06/07 05:01:01;;;;;;;15.38;6.05;;;;;;;27.37;70.85;100547.27;1464948;97;21107;-79
2021/06/07 05:03:28;;;;;;;13.25;6.42;;;;;;;27.77;71.87;100538.28;1456565;97;21573;-79
2021/06/07 05:05:57;;;;;;;12.00;6.58;;;;;;;28.31;71.45;100543.80;1454774;98;21129;-80
2021/06/07 05:08:28;;;;;;;12.85;6.03;;;;;;;29.02;59.61;100546.16;1459926;95;21296;-80
2021/06/07 05:10:54;;;;;;;18.37;6.50;;;;;;;30.10;61.40;100537.92;1493956;95;21169;-79
2021/06/07 05:13:21;;;;;;;13.70;6.15;;;;;;;30.85;56.19;100544.73;1507506;95;21124;-80
2021/06/07 05:15:49;;;;;;;12.53;5.83;;;;;;;31.28;50.41;100549.62;1507405;95;21109;-80
2021/06/07 05:18:17;;;;;;;17.50;6.00;;;;;;;31.99;49.94;100547.75;1533804;90;21033;-79
2021/06/07 05:20:46;;;;;;;11.30;5.62;;;;;;;33.70;50.02;100543.97;1582555;90;21152;-79
2021/06/07 05:23:13;;;;;;;14.28;5.25;;;;;;;33.66;46.04;100555.81;1582258;90;21037;-80
2021/06/07 05:25:44;;;;;;;11.75;5.37;;;;;;;35.33;40.61;100550.70;1582586;90;21093;-80
2021/06/07 05:28:13;;;;;;;9.80;5.00;;;;;;;34.72;41.45;100548.44;1582124;90;21529;-79
2021/06/07 05:30:46;;;;;;;23.22;5.58;;;;;;;34.98;39.63;100550.17;1582543;90;21102;-79
2021/06/07 05:33:14;;;;;;;14.40;5.45;;;;;;;34.72;39.42;100554.03;1579792;90;21861;-80
2021/06/07 05:35:48;;;;;;;12.47;5.40;;;;;;;33.79;40.76;100558.83;1582399;90;20970;-80
2021/06/07 05:38:16;;;;;;;12.93;4.85;;;;;;;33.82;41.19;100555.97;1582432;90;21623;-79
2021/06/07 05:40:47;;;;;;;10.08;5.45;;;;;;;33.95;40.34;100556.83;1582534;90;21613;-79
2021/06/07 05:43:17;;;;;;;9.28;4.58;;;;;;;33.70;41.42;100556.55;1582358;90;21050;-79
2021/06/07 05:45:49;;;;;;;14.38;4.72;;;;;;;33.27;43.41;100557.64;1578985;90;21042;-80
2021/06/07 05:48:17;;;;;;;10.95;4.40;;;;;;;34.03;40.70;100561.92;1581951;90;21515;-83
2021/06/07 05:50:47;;;;;;;9.33;4.37;;;;;;;34.72;38.71;100552.63;1579517;90;21092;-79
2021/06/07 05:53:18;;;;;;;9.00;4.10;;;;;;;34.81;38.71;100555.66;1633779;87;21064;-80
2021/06/07 05:55:47;;;;;;;9.63;4.85;;;;;;;33.92;39.19;100560.64;1577851;90;21073;-79
2021/06/07 05:58:18;;;;;;;8.85;4.70;;;;;;;34.33;37.22;100554.06;1577805;91;21111;-80
2021/06/07 06:00:51;;;;;;;11.33;4.22;;;;;;;34.22;39.20;100561.83;1575695;91;21044;-80
2021/06/07 06:03:20;;;;;;;13.38;5.90;;;;;;;34.22;38.01;100557.62;1575688;90;21066;-79
2021/06/07 06:05:51;;;;;;;8.78;4.22;;;;;;;34.29;39.03;100558.12;1579215;90;21038;-81
2021/06/07 06:10:47;;;;;;;7.85;3.70;;;;;;;34.44;38.09;100554.48;1501598;94;21073;-80
2021/06/07 06:13:23;;;;;;;;;;;;;;;;;;;;;
2021/06/07 06:15:44;;;;;;;4.92;3.62;;;;;;;34.64;37.54;100545.57;1440989;98;21092;-80
2021/06/07 06:18:09;;;;;;;7.65;3.67;;;;;;;35.15;35.46;100549.08;1438531;99;21643;-80
2021/06/07 06:20:37;;;;;;;8.90;3.42;;;;;;;35.76;34.91;100547.81;1441218;99;21669;-80
2021/06/07 06:23:13;;;;;;;9.38;3.15;;;;;;;36.25;34.47;100546.52;1456394;98;21413;-80
2021/06/07 06:25:42;;;;;;;4.20;3.00;;;;;;;35.79;35.28;100551.16;1456351;97;21596;-79
2021/06/07 06:28:13;;;;;;;6.85;3.40;;;;;;;35.65;35.08;100545.27;1456325;98;21747;-79
2021/06/07 06:30:41;;;;;;;9.17;3.80;;;;;;;35.84;34.44;100534.44;1451008;98;21130;-79
2021/06/07 06:33:12;;;;;;;10.45;3.20;;;;;;;35.07;35.14;100545.44;1388128;103;21962;-79
2021/06/07 06:35:43;;;;;;;6.97;3.70;;;;;;;35.33;35.57;100544.52;1388223;103;21066;-79
2021/06/07 06:38:10;;;;;;;7.12;3.70;;;;;;;34.34;35.37;100550.04;1394318;102;21646;-79
2021/06/07 06:40:39;;;;;;;10.13;4.62;;;;;;;34.26;36.62;100551.97;1413395;101;21627;-79
2021/06/07 06:43:07;;;;;;;9.23;4.05;;;;;;;33.58;37.03;100549.52;1413189;101;21068;-80
2021/06/07 06:45:37;;;;;;;6.75;3.70;;;;;;;33.00;38.66;100556.94;1410678;101;21038;-79
2021/06/07 06:48:05;;;;;;;8.98;3.77;;;;;;;32.04;40.13;100556.48;1410111;101;21354;-79
2021/06/07 06:50:43;;;;;;;5.03;3.30;;;;;;;32.09;40.30;100557.45;1412650;101;21144;-78
2021/06/07 06:53:17;;;;;;;9.55;3.85;;;;;;;32.27;41.44;100555.94;1410646;101;21126;-80
2021/06/07 06:55:45;;;;;;;14.75;4.72;;;;;;;32.94;39.99;100558.56;1438526;99;21183;-80
2021/06/07 06:58:38;;;;;;;12.53;3.22;;;;;;;33.38;39.30;100552.73;1425742;100;21555;-79
2021/06/07 07:01:07;;;;;;;10.48;4.80;;;;;;;33.81;39.57;100557.81;1420713;101;22007;-81
2021/06/07 07:03:45;;;;;;;;;;;;;;;;;;;;;
2021/06/07 07:06:24;;;;;;;;;;;;;;;;;;;;;
2021/06/07 07:09:22;;;;;;;12.90;5.70;;;;;;;34.84;37.15;100558.84;1415222;101;21137;-80
2021/06/07 07:11:50;;;;;;;10.48;5.35;;;;;;;35.43;36.41;100551.89;1415499;101;21187;-79
2021/06/07 07:14:18;;;;;;;12.60;6.08;;;;;;;36.79;35.57;100552.20;1408306;99;21672;-79
2021/06/07 07:16:44;;;;;;;10.15;5.35;;;;;;;37.83;30.94;100551.48;1422418;99;21161;-80
2021/06/07 07:19:48;;;;;;;9.30;4.78;;;;;;;37.38;30.71;100558.00;1433805;99;21226;-80
2021/06/07 07:22:17;;;;;;;11.33;4.90;;;;;;;37.96;30.46;100552.91;1401887;101;21162;-80
2021/06/07 07:24:46;;;;;;;7.28;3.42;;;;;;;37.18;30.85;100555.38;1399315;102;21107;-79
2021/06/07 07:27:23;;;;;;;3.20;2.55;;;;;;;37.18;30.85;100555.38;1350784;105;21068;-80
2021/06/07 07:29:57;;;;;;;6.87;3.70;;;;;;;36.32;30.89;100558.95;1350732;106;21536;-79
2021/06/07 07:32:26;;;;;;;5.47;3.77;;;;;;;36.14;31.85;100561.41;1345200;106;21302;-81
2021/06/07 07:35:15;;;;;;;7.08;3.35;;;;;;;36.65;31.60;100558.19;1345372;105;21247;-81
2021/06/07 07:37:50;;;;;;;7.03;3.02;;;;;;;37.01;31.29;100550.42;1349351;105;21168;-80
2021/06/07 07:40:44;;;;;;;4.15;2.60;;;;;;;37.72;30.06;100557.43;1377428;103;21327;-80
2021/06/07 07:44:19;;;;;;;7.50;2.87;;;;;;;38.17;29.04;100551.44;1389698;103;21696;-82
2021/06/07 07:46:43;;;;;;;6.62;2.47;;;;;;;37.87;29.95;100552.16;1369725;104;21646;-81
2021/06/07 07:49:14;;;;;;;7.97;2.65;;;;;;;36.96;30.59;100559.36;1367733;105;21575;-80
2021/06/07 07:51:44;;;;;;;5.58;3.05;;;;;;;36.39;31.05;100563.02;1362839;105;21067;-81
2021/06/07 07:54:28;;;;;;;9.38;3.42;;;;;;;36.00;30.88;100557.50;1408233;100;21134;-80
2021/06/07 07:57:40;;;;;;;9.70;3.70;;;;;;;34.67;33.16;100559.33;1416130;101;21037;-81
2021/06/07 08:00:15;;;;;;;6.67;3.20;;;;;;;34.75;32.81;100564.38;1413053;101;21104;-80
2021/06/07 08:02:47;;;;;;;6.65;3.08;;;;;;;33.85;34.16;100565.53;1392371;102;21120;-80
2021/06/07 08:05:22;;;;;;;6.95;2.52;;;;;;;33.92;33.46;100566.23;1370933;104;21151;-79
2021/06/07 08:10:58;;;;;;;9.95;4.58;;;;;;;34.11;35.21;100562.59;1370828;104;21049;-79
2021/06/07 08:13:54;;;;;;;10.08;4.87;;;;;;;35.52;33.26;100558.94;1370904;104;21160;-79
2021/06/07 08:16:43;;;;;;;11.18;3.85;;;;;;;35.18;33.52;100563.63;1351062;106;21179;-80
2021/06/07 08:21:46;;;;;;;15.23;4.72;;;;;;;33.49;35.16;100571.56;1360792;105;21108;-79
2021/06/07 08:24:22;;;;;;;7.72;4.17;;;;;;;32.49;36.42;100564.95;1355146;105;21708;-79
2021/06/07 08:29:32;;;;;;;9.68;5.08;;;;;;;31.66;37.55;100568.02;1387888;103;21855;-79
2021/06/07 08:32:27;;;;;;;21.20;6.03;;;;;;;31.54;38.21;100565.68;1352075;106;21191;-80
2021/06/07 08:34:53;;;;;;;20.35;8.53;;;;;;;31.19;39.05;100563.17;1339542;106;21331;-77
2021/06/07 08:37:21;;;;;;;19.70;8.90;;;;;;;30.32;39.90;100565.17;1325252;106;21188;-78
2021/06/07 08:39:49;;;;;;;23.10;9.70;;;;;;;29.69;41.17;100558.86;1288747;108;21233;-80
2021/06/07 08:42:21;;;;;;;23.92;9.60;;;;;;;29.67;41.91;100555.06;1306616;109;21208;-81
2021/06/07 08:45:01;;;;;;;30.07;10.30;;;;;;;29.40;43.64;100563.66;1305846;109;21151;-79
2021/06/07 08:51:15;;;;;;;25.68;10.35;;;;;;;29.43;43.65;100567.64;1268930;113;21655;-79
2021/06/07 08:54:26;;;;;;;21.80;10.05;;;;;;;29.46;43.76;100558.52;1279452;110;21655;-78
2021/06/07 08:57:25;;;;;;;22.73;10.23;;;;;;;29.17;44.60;100561.14;1292416;109;21195;-76
2021/06/07 09:04:19;;;;;;;39.42;14.38;;;;;;;28.68;46.54;100560.20;1288025;108;21210;-78
2021/06/07 09:06:49;;;;;;;25.00;11.12;;;;;;;28.18;48.21;100554.16;1294315;110;21148;-79
2021/06/07 09:12:01;;;;;;;28.12;8.85;;;;;;;27.90;49.97;100562.38;1317455;108;21160;-81
2021/06/07 09:18:12;;;;;;;20.25;7.62;;;;;;;27.46;50.85;100563.01;1287340;110;21183;-80
2021/06/07 09:20:43;;;;;;;20.82;8.83;;;;;;;26.75;54.37;100556.42;1269190;111;21232;-82
2021/06/07 09:23:15;;;;;;;22.70;8.28;;;;;;;26.37;59.61;100557.54;1270411;112;21240;-81
2021/06/07 09:26:27;;;;;;;21.97;7.65;;;;;;;26.14;61.47;100556.72;1281757;110;21083;-81
2021/06/07 09:29:02;;;;;;;23.60;7.70;;;;;;;25.91;64.56;100549.77;1299786;110;21182;-76
2021/06/07 09:31:57;;;;;;;22.70;7.25;;;;;;;25.51;78.08;100548.17;1295283;109;21203;-78
2021/06/07 09:34:37;;;;;;;17.17;7.50;;;;;;;25.52;77.89;100547.00;1298540;107;21163;-81
2021/06/07 09:37:15;;;;;;;21.52;7.60;;;;;;;25.64;86.36;100545.47;1298114;110;21643;-81
2021/06/07 09:40:25;;;;;;;18.40;6.55;;;;;;;26.18;78.20;100536.30;1296602;110;21194;-83
2021/06/07 09:43:43;;;;;;;16.90;6.95;;;;;;;26.87;69.47;100529.34;1296865;110;21122;-86
2021/06/07 09:46:16;;;;;;;18.75;6.87;;;;;;;26.81;68.56;100525.31;1328902;108;21190;-86
2021/06/07 09:49:06;;;;;;;15.95;7.15;;;;;;;27.18;68.40;100528.84;1329016;108;21104;-85
2021/06/07 09:51:57;;;;;;;15.65;7.17;;;;;;;27.44;65.01;100529.36;1343895;105;21143;-88
2021/06/07 09:54:28;;;;;;;22.90;8.13;;;;;;;27.23;67.23;100532.65;1329118;108;21127;-83
2021/06/07 09:57:50;;;;;;;20.77;8.15;;;;;;;27.45;64.13;100532.36;1341934;106;21092;-85
2021/06/07 10:11:41;;;;;;;21.65;7.83;;;;;;;27.70;61.51;100520.18;1309004;108;21198;-86
2021/06/07 10:14:23;;;;;;;13.72;6.28;;;;;;;28.49;56.11;100507.16;1293029;108;21149;-85
2021/06/07 10:17:00;;;;;;;14.50;6.87;;;;;;;28.58;55.66;100510.39;1321776;106;21222;-86
2021/06/07 10:22:10;;;;;;;14.83;6.90;;;;;;;28.76;58.51;100502.98;1345312;106;21133;-86
2021/06/07 10:24:40;;;;;;;13.80;6.25;;;;;;;28.52;56.97;100506.38;1366002;102;21222;-87
2021/06/07 10:27:07;;;;;;;14.43;6.53;;;;;;;28.78;58.45;100506.77;1383279;102;21579;-86
2021/06/07 10:29:42;;;;;;;16.15;6.83;;;;;;;29.04;57.43;100506.38;1425664;98;21338;-86
2021/06/07 10:32:12;;;;;;;13.25;6.45;;;;;;;29.18;56.13;100495.34;1402840;101;21125;-89
2021/06/07 10:35:02;;;;;;;15.45;6.08;;;;;;;28.81;59.27;100507.39;1397225;102;21155;-88
2021/06/07 10:38:14;;;;;;;12.03;4.35;;;;;;;28.84;57.91;100499.67;1395518;102;21131;-87
2021/06/07 10:40:52;;;;;;;9.78;3.50;;;;;;;29.01;56.78;100495.42;1442683;99;21084;-84
2021/06/07 10:43:18;;;;;;;12.03;2.72;;;;;;;28.45;58.74;100498.81;1439847;99;21099;-85
2021/06/07 10:45:44;;;;;;;7.00;2.90;;;;;;;28.47;58.36;100508.11;1442731;99;21061;-86
2021/06/07 10:50:46;;;;;;;9.53;4.45;;;;;;;28.43;57.11;100505.32;1442549;98;21196;-86
2021/06/07 10:53:25;;;;;;;11.48;4.47;;;;;;;28.09;57.83;100511.55;1455059;97;21041;-85
2021/06/07 10:56:09;;;;;;;11.25;4.53;;;;;;;28.31;57.46;100506.98;1475264;97;21899;-85
2021/06/07 10:58:58;;;;;;;9.68;4.17;;;;;;;27.74;61.10;100508.58;1475124;97;21041;-84
2021/06/07 11:01:54;;;;;;;8.13;3.55;;;;;;;27.48;62.91;100508.67;1469913;97;21448;-85
2021/06/07 11:04:39;;;;;;;12.80;3.98;;;;;;;27.23;66.71;100510.51;1469964;97;21025;-87
2021/06/07 11:07:19;;;;;;;6.78;3.20;;;;;;;27.00;66.51;100500.88;1432929;98;21217;-85
2021/06/07 11:10:23;;;;;;;8.28;3.55;;;;;;;27.07;72.74;100506.52;1430917;100;21217;-85
2021/06/07 11:12:54;;;;;;;8.40;3.20;;;;;;;26.84;82.21;100503.82;1432403;98;21029;-85
2021/06/07 11:15:50;;;;;;;;;;;;;;;;;;;;;
2021/06/07 11:18:30;;;;;;;9.78;4.42;;;;;;;26.28;90.30;100503.11;1364885;104;21155;-86
2021/06/07 11:21:10;;;;;;;16.07;4.58;;;;;;;26.34;80.21;100497.48;1392490;102;21199;-87
2021/06/07 11:27:36;;;;;;;16.20;4.78;;;;;;;26.50;79.00;100499.56;1392306;102;21110;-82
2021/06/07 11:37:36;;;;;;;14.53;4.53;;;;;;;26.40;73.42;100492.45;1362799;102;21193;-85
2021/06/07 11:40:13;;;;;;;20.23;4.70;;;;;;;26.53;74.87;100489.71;1378945;104;21317;-86
2021/06/07 11:42:57;;;;;;;12.13;5.28;;;;;;;26.56;77.90;100484.85;1355967;105;21631;-85
2021/06/07 11:45:45;;;;;;;16.50;4.92;;;;;;;26.67;79.05;100486.38;1353210;105;21654;-86
2021/06/07 11:48:14;;;;;;;13.43;4.87;;;;;;;26.52;79.07;100492.27;1353314;104;21096;-86
2021/06/07 11:50:41;;;;;;;10.95;4.87;;;;;;;26.74;77.83;100485.12;1374158;103;21111;-87
2021/06/07 11:53:17;;;;;;;13.45;4.65;;;;;;;27.01;72.88;100487.28;1409023;99;22025;-87
2021/06/07 12:24:33;;;;;;;6.70;3.35;;;;;;;28.19;64.52;100469.26;1518006;93;21549;-84
2021/06/07 12:33:04;;;;;;;8.68;2.60;;;;;;;28.08;59.66;100452.53;1395280;102;21119;-86
2021/06/07 12:35:44;;;;;;;10.43;3.02;;;;;;;27.98;57.21;100446.32;1417687;101;21057;-84
2021/06/07 12:38:16;;;;;;;4.87;2.90;;;;;;;27.76;60.24;100448.05;1395806;102;21127;-85
2021/06/07 12:40:49;;;;;;;10.05;2.62;;;;;;;27.81;61.34;100447.73;1435595;99;21145;-87
2021/06/07 12:43:32;;;;;;;;;;;;;;;;;;;;;
2021/06/07 12:45:58;;;;;;;11.10;2.50;;;;;;;28.41;59.06;100432.00;1390922;103;21148;-87
2021/06/07 12:48:33;;;;;;;7.37;2.92;;;;;;;28.76;57.52;100431.46;1379236;103;21151;-90
2021/06/07 12:51:43;;;;;;;6.75;3.12;;;;;;;28.68;55.43;100426.48;1387727;102;21126;-88
2021/06/07 12:54:31;;;;;;;6.17;2.70;;;;;;;28.48;58.51;100430.71;1377656;102;21172;-88
2021/06/07 12:57:48;;;;;;;8.00;2.00;;;;;;;28.41;58.36;100427.27;1376771;102;21143;-89
2021/06/07 13:00:48;;;;;;;7.47;2.08;;;;;;;28.35;56.39;100424.63;1382505;103;21227;-87
2021/06/07 13:07:01;;;;;;;;;;;;;;;;;;;;;
2021/06/07 13:09:56;;;;;;;;;;;;;;;;;;;;;
2021/06/07 13:12:30;;;;;;;10.08;3.25;;;;;;;28.48;53.86;100436.25;1351545;106;21138;-89
2021/06/07 13:15:42;;;;;;;5.62;2.30;;;;;;;28.41;56.15;100436.98;1333624;106;21790;-88
2021/06/07 13:18:43;;;;;;;;;;;;;;;;;;;;;
2021/06/07 13:33:16;;;;;;;17.52;5.67;;;;;;;27.66;55.52;100474.27;1317193;107;21674;-87
2021/06/07 13:35:42;;;;;;;11.63;5.37;;;;;;;27.49;58.23;100478.41;1322233;108;21187;-86
2021/06/07 13:38:33;;;;;;;22.07;6.08;;;;;;;27.59;59.07;100473.58;1322307;108;21050;-88
2021/06/07 13:41:13;;;;;;;19.82;7.05;;;;;;;27.52;59.76;100472.91;1316155;106;21168;-86